Time;durP1;ratioP1;P1;durP2;ratioP2;P2;SDS_P1;SDS_P2;PMS_P1;PMS_P2;Temp;Humidity;BMP_temperature;BMP_pressure;BME280_temperature;BME280_humidity;BME280_pressure;Samples;Min_cycle;Max_cycle;Signal;HPM_P1;HPM_P2
2023/07/11 00:00:19;;;;;;;5.80;2.30;;;;;;;;;;5103418;28;20543;-80
2023/07/11 00:02:47;;;;;;;3.87;2.00;;;;;;;;;;5103932;28;20566;-79
2023/07/11 00:05:16;;;;;;;6.97;2.17;;;;;;;;;;5103077;28;20466;-80
2023/07/11 00:07:44;;;;;;;4.77;3.13;;;;;;;;;;5103231;28;20435;-78
2023/07/11 00:10:14;;;;;;;5.30;2.77;;;;;;;;;;5105738;28;20459;-77
2023/07/11 00:12:42;;;;;;;5.87;1.90;;;;;;;;;;5105352;28;20467;-79
2023/07/11 00:15:11;;;;;;;5.73;2.57;;;;;;;;;;5106811;28;20466;-80
2023/07/11 00:17:39;;;;;;;5.70;2.03;;;;;;;;;;5106762;28;20447;-78
2023/07/11 00:20:11;;;;;;;5.00;2.33;;;;;;;;;;5107778;28;20432;-79
2023/07/11 00:22:40;;;;;;;4.80;2.20;;;;;;;;;;5105934;28;20447;-79
2023/07/11 00:25:08;;;;;;;7.33;2.80;;;;;;;;;;5108316;28;20452;-77
2023/07/11 00:27:36;;;;;;;9.57;2.00;;;;;;;;;;5108764;28;20486;-79
2023/07/11 00:30:13;;;;;;;7.93;2.67;;;;;;;;;;5108495;28;20872;-79
2023/07/11 00:32:40;;;;;;;6.63;2.93;;;;;;;;;;5111168;28;20491;-79
2023/07/11 00:35:09;;;;;;;7.10;2.70;;;;;;;;;;5107828;28;20463;-80
2023/07/11 00:37:36;;;;;;;5.97;2.80;;;;;;;;;;5106548;28;20714;-80
2023/07/11 00:40:13;;;;;;;7.97;2.20;;;;;;;;;;5105711;28;20988;-78
2023/07/11 00:42:42;;;;;;;4.93;2.30;;;;;;;;;;5102951;28;20462;-80
2023/07/11 00:45:27;;;;;;;4.53;2.17;;;;;;;;;;5104201;28;20463;-80
2023/07/11 00:47:54;;;;;;;7.93;2.50;;;;;;;;;;5101669;28;20452;-80
2023/07/11 00:50:22;;;;;;;5.13;2.23;;;;;;;;;;5105307;28;20514;-80
2023/07/11 00:52:49;;;;;;;4.00;2.30;;;;;;;;;;5102255;28;20474;-80
2023/07/11 00:55:18;;;;;;;10.00;3.03;;;;;;;;;;5109390;28;20469;-80
2023/07/11 00:57:46;;;;;;;5.63;2.30;;;;;;;;;;5107391;28;20873;-79
2023/07/11 01:00:16;;;;;;;4.93;2.17;;;;;;;;;;5106105;28;20936;-78
2023/07/11 01:02:45;;;;;;;7.57;2.87;;;;;;;;;;5106177;28;20468;-78
2023/07/11 01:05:12;;;;;;;5.73;2.57;;;;;;;;;;5108518;28;20570;-77
2023/07/11 01:07:40;;;;;;;7.47;2.20;;;;;;;;;;5108342;28;20497;-79
2023/07/11 01:10:23;;;;;;;5.17;2.50;;;;;;;;;;5109350;28;20455;-79
2023/07/11 01:12:50;;;;;;;5.70;2.37;;;;;;;;;;5106970;28;20447;-80
2023/07/11 01:15:18;;;;;;;3.63;1.83;;;;;;;;;;5108858;28;20491;-80
2023/07/11 01:17:47;;;;;;;6.80;2.47;;;;;;;;;;5106548;28;20463;-79
2023/07/11 01:20:16;;;;;;;4.50;2.17;;;;;;;;;;5108539;28;20539;-79
2023/07/11 01:22:45;;;;;;;6.40;2.80;;;;;;;;;;5107177;28;20440;-80
2023/07/11 01:25:13;;;;;;;5.17;2.20;;;;;;;;;;5108369;28;20845;-78
2023/07/11 01:27:43;;;;;;;4.13;2.37;;;;;;;;;;5107380;28;20451;-78
2023/07/11 01:30:21;;;;;;;4.83;2.20;;;;;;;;;;5106092;28;20494;-79
2023/07/11 01:32:49;;;;;;;7.00;2.80;;;;;;;;;;5107174;28;20730;-79
2023/07/11 01:35:17;;;;;;;8.00;2.87;;;;;;;;;;5106003;28;20488;-79
2023/07/11 01:37:46;;;;;;;4.10;2.43;;;;;;;;;;5107460;28;20473;-79
2023/07/11 01:40:21;;;;;;;8.70;2.77;;;;;;;;;;5107347;28;20439;-79
2023/07/11 01:42:48;;;;;;;7.17;2.53;;;;;;;;;;5111251;28;20447;-79
2023/07/11 01:45:18;;;;;;;7.67;2.40;;;;;;;;;;5105642;28;20478;-79
2023/07/11 01:47:46;;;;;;;5.33;2.80;;;;;;;;;;5106123;28;20482;-80
2023/07/11 01:50:15;;;;;;;10.33;3.67;;;;;;;;;;5105024;28;20470;-78
2023/07/11 01:52:43;;;;;;;8.90;2.90;;;;;;;;;;5105471;28;20543;-79
2023/07/11 01:55:12;;;;;;;6.67;2.60;;;;;;;;;;5102294;28;20491;-78
2023/07/11 01:57:39;;;;;;;4.30;2.27;;;;;;;;;;5103633;28;20538;-78
2023/07/11 02:00:14;;;;;;;4.70;2.50;;;;;;;;;;5106116;28;20466;-80
2023/07/11 02:02:42;;;;;;;7.97;2.47;;;;;;;;;;5103684;28;20477;-78
2023/07/11 02:05:09;;;;;;;7.10;2.73;;;;;;;;;;5106361;28;20571;-79
2023/07/11 02:07:37;;;;;;;5.33;2.90;;;;;;;;;;5105246;28;20467;-80
2023/07/11 02:10:20;;;;;;;8.33;2.83;;;;;;;;;;5109202;28;20469;-79
2023/07/11 02:12:49;;;;;;;4.60;2.67;;;;;;;;;;5107769;28;20558;-79
2023/07/11 02:15:16;;;;;;;4.70;2.30;;;;;;;;;;5108928;28;20488;-79
2023/07/11 02:17:44;;;;;;;6.23;3.13;;;;;;;;;;5110718;28;20466;-79
2023/07/11 02:20:14;;;;;;;3.87;2.63;;;;;;;;;;5109512;28;20452;-79
2023/07/11 02:22:42;;;;;;;5.50;2.97;;;;;;;;;;5108661;28;20462;-80
2023/07/11 02:25:10;;;;;;;6.47;2.70;;;;;;;;;;5109251;28;20455;-79
2023/07/11 02:27:37;;;;;;;5.43;3.20;;;;;;;;;;5110058;28;20526;-79
2023/07/11 02:30:23;;;;;;;5.07;2.70;;;;;;;;;;5103515;28;20448;-79
2023/07/11 02:32:51;;;;;;;6.17;2.83;;;;;;;;;;5105082;28;20503;-79
2023/07/11 02:35:18;;;;;;;5.30;3.13;;;;;;;;;;5100248;28;20578;-79
2023/07/11 02:37:46;;;;;;;4.77;2.10;;;;;;;;;;5102448;28;20444;-78
2023/07/11 02:40:15;;;;;;;5.40;2.70;;;;;;;;;;5106663;28;20454;-79
2023/07/11 02:42:43;;;;;;;8.97;3.60;;;;;;;;;;5103738;28;20440;-79
2023/07/11 02:45:14;;;;;;;6.47;3.00;;;;;;;;;;5106872;28;20461;-80
2023/07/11 02:47:42;;;;;;;4.97;2.40;;;;;;;;;;5103996;28;20446;-79
2023/07/11 02:50:12;;;;;;;8.57;3.50;;;;;;;;;;5103286;28;20459;-79
2023/07/11 02:52:49;;;;;;;5.47;2.80;;;;;;;;;;5106901;28;20742;-80
2023/07/11 02:55:17;;;;;;;5.23;2.90;;;;;;;;;;5103794;28;20526;-80
2023/07/11 02:57:44;;;;;;;6.07;3.10;;;;;;;;;;5106115;28;20462;-80
2023/07/11 03:00:16;;;;;;;5.13;2.90;;;;;;;;;;5104681;28;20470;-79
2023/07/11 03:02:44;;;;;;;4.50;2.43;;;;;;;;;;5104945;28;20447;-80
2023/07/11 03:05:11;;;;;;;6.37;3.20;;;;;;;;;;5102206;28;20504;-79
2023/07/11 03:07:39;;;;;;;5.20;2.63;;;;;;;;;;5101335;28;20456;-78
2023/07/11 03:10:12;;;;;;;6.33;3.00;;;;;;;;;;5099331;28;20463;-78
2023/07/11 03:12:40;;;;;;;5.00;2.50;;;;;;;;;;5103349;28;20904;-80
2023/07/11 03:15:08;;;;;;;4.60;2.50;;;;;;;;;;5105469;28;20490;-80
2023/07/11 03:17:37;;;;;;;5.40;3.30;;;;;;;;;;5103632;28;20451;-77
2023/07/11 03:20:12;;;;;;;7.17;3.60;;;;;;;;;;5103228;28;20746;-79
2023/07/11 03:22:39;;;;;;;4.90;3.07;;;;;;;;;;5101323;28;20455;-79
2023/07/11 03:25:07;;;;;;;4.00;2.47;;;;;;;;;;5102079;28;20495;-79
2023/07/11 03:27:34;;;;;;;6.83;3.60;;;;;;;;;;5102744;28;20479;-79
2023/07/11 03:30:01;;;;;;;5.63;3.10;;;;;;;;;;5100901;28;20792;-79
2023/07/11 03:32:33;;;;;;;4.77;3.30;;;;;;;;;;5101983;28;20459;-79
2023/07/11 03:35:02;;;;;;;6.50;3.10;;;;;;;;;;5099111;28;20570;-80
2023/07/11 03:37:30;;;;;;;4.90;3.20;;;;;;;;;;5100539;28;20466;-80
2023/07/11 03:39:57;;;;;;;7.77;3.57;;;;;;;;;;5098903;28;20872;-79
2023/07/11 03:42:25;;;;;;;6.17;3.23;;;;;;;;;;5101195;28;20916;-79
2023/07/11 03:44:53;;;;;;;10.40;4.13;;;;;;;;;;5099954;28;20938;-79
2023/07/11 03:47:20;;;;;;;6.00;3.27;;;;;;;;;;5102361;28;20444;-80
2023/07/11 03:49:47;;;;;;;6.10;3.23;;;;;;;;;;5103200;28;20884;-79
2023/07/11 03:52:16;;;;;;;7.70;3.53;;;;;;;;;;5105735;28;20455;-80
2023/07/11 03:54:44;;;;;;;5.97;3.43;;;;;;;;;;5104342;28;20549;-78
2023/07/11 03:57:11;;;;;;;8.50;3.10;;;;;;;;;;5107061;28;20495;-79
2023/07/11 03:59:38;;;;;;;8.50;3.73;;;;;;;;;;5111311;28;20603;-79
2023/07/11 04:02:06;;;;;;;10.83;3.67;;;;;;;;;;5113043;28;20475;-80
2023/07/11 04:04:34;;;;;;;4.83;3.43;;;;;;;;;;5106387;28;20459;-79
2023/07/11 04:07:01;;;;;;;5.93;3.77;;;;;;;;;;5103600;28;20524;-80
2023/07/11 04:09:30;;;;;;;6.63;3.73;;;;;;;;;;5103650;28;20766;-79
2023/07/11 04:11:57;;;;;;;7.13;3.50;;;;;;;;;;5105251;28;20478;-80
2023/07/11 04:14:25;;;;;;;5.40;3.13;;;;;;;;;;5103313;28;20489;-80
2023/07/11 04:16:52;;;;;;;5.87;3.40;;;;;;;;;;5103149;28;20455;-80
2023/07/11 04:19:19;;;;;;;5.47;3.30;;;;;;;;;;5103353;28;20466;-78
2023/07/11 04:21:47;;;;;;;7.90;3.70;;;;;;;;;;5105010;28;20512;-78
2023/07/11 04:24:14;;;;;;;4.87;3.07;;;;;;;;;;5104411;28;20471;-77
2023/07/11 04:26:43;;;;;;;5.40;3.10;;;;;;;;;;5104198;28;20497;-79
2023/07/11 04:29:10;;;;;;;6.00;3.37;;;;;;;;;;5104074;28;20465;-79
2023/07/11 04:31:38;;;;;;;4.13;2.93;;;;;;;;;;5104349;28;20505;-80
2023/07/11 04:34:05;;;;;;;7.00;3.43;;;;;;;;;;5103385;28;20491;-79
2023/07/11 04:36:33;;;;;;;4.50;2.90;;;;;;;;;;5104389;28;20781;-78
2023/07/11 04:39:00;;;;;;;5.53;3.70;;;;;;;;;;5102139;28;20451;-78
2023/07/11 04:41:27;;;;;;;5.53;3.13;;;;;;;;;;5107093;28;20458;-77
2023/07/11 04:43:56;;;;;;;5.70;3.10;;;;;;;;;;5106077;28;20557;-79
2023/07/11 04:46:25;;;;;;;5.53;3.27;;;;;;;;;;5104554;28;20550;-79
2023/07/11 04:48:53;;;;;;;9.63;2.90;;;;;;;;;;5101935;28;20447;-80
2023/07/11 04:51:20;;;;;;;4.43;2.63;;;;;;;;;;5105141;28;20707;-80
2023/07/11 04:53:48;;;;;;;4.63;2.77;;;;;;;;;;5106808;28;20512;-79
2023/07/11 04:56:15;;;;;;;6.07;2.60;;;;;;;;;;5107443;28;20458;-79
2023/07/11 04:58:42;;;;;;;5.03;2.67;;;;;;;;;;5103424;28;20482;-78
2023/07/11 05:01:12;;;;;;;6.33;2.90;;;;;;;;;;5104160;28;20461;-79
2023/07/11 05:03:39;;;;;;;5.43;2.90;;;;;;;;;;5102176;28;20732;-79
2023/07/11 05:06:07;;;;;;;6.70;2.83;;;;;;;;;;5102996;28;20572;-78
2023/07/11 05:08:34;;;;;;;6.37;3.13;;;;;;;;;;5102199;28;20447;-78
2023/07/11 05:11:03;;;;;;;9.33;3.03;;;;;;;;;;5103117;28;20447;-77
2023/07/11 05:13:31;;;;;;;8.10;2.83;;;;;;;;;;5102961;28;20447;-80
2023/07/11 05:16:01;;;;;;;6.67;2.70;;;;;;;;;;5101919;28;20556;-79
2023/07/11 05:18:30;;;;;;;8.27;3.07;;;;;;;;;;5104396;28;20416;-78
2023/07/11 05:20:58;;;;;;;8.80;2.40;;;;;;;;;;5103493;28;20529;-80
2023/07/11 05:23:27;;;;;;;5.70;2.73;;;;;;;;;;5102007;28;20567;-79
2023/07/11 05:25:55;;;;;;;8.40;2.70;;;;;;;;;;5102778;28;20452;-79
2023/07/11 05:28:24;;;;;;;5.93;1.87;;;;;;;;;;5100997;28;20451;-78
2023/07/11 05:30:52;;;;;;;11.37;4.80;;;;;;;;;;5097840;28;20460;-78
2023/07/11 05:33:20;;;;;;;8.40;2.40;;;;;;;;;;5083047;28;20460;-79
2023/07/11 05:38:44;;;;;;;8.60;3.03;;;;;;;;;;5073472;28;20529;-80
2023/07/11 05:41:12;;;;;;;9.20;2.30;;;;;;;;;;5079421;28;20473;-79
2023/07/11 05:43:39;;;;;;;5.50;2.07;;;;;;;;;;5082533;28;20510;-78
2023/07/11 05:46:06;;;;;;;7.37;2.03;;;;;;;;;;5082600;28;20456;-81
2023/07/11 05:48:34;;;;;;;9.80;4.17;;;;;;;;;;5081717;28;20474;-80
2023/07/11 05:51:02;;;;;;;7.67;2.60;;;;;;;;;;5079425;28;20456;-79
2023/07/11 05:53:29;;;;;;;6.53;2.43;;;;;;;;;;5077706;28;20874;-79
2023/07/11 05:55:58;;;;;;;5.73;2.37;;;;;;;;;;5080392;28;20480;-78
2023/07/11 05:58:26;;;;;;;5.90;2.23;;;;;;;;;;5081054;28;20501;-77
2023/07/11 06:00:53;;;;;;;6.93;2.20;;;;;;;;;;5082414;28;20449;-78
2023/07/11 06:03:22;;;;;;;7.13;2.23;;;;;;;;;;5086905;28;20728;-78
2023/07/11 06:05:50;;;;;;;8.77;2.40;;;;;;;;;;5085357;28;20838;-77
2023/07/11 06:08:18;;;;;;;6.07;2.10;;;;;;;;;;5083237;28;20656;-77
2023/07/11 06:10:46;;;;;;;7.87;2.50;;;;;;;;;;5082123;28;20749;-78
2023/07/11 06:13:16;;;;;;;6.10;2.33;;;;;;;;;;5080125;28;20456;-79
2023/07/11 06:15:43;;;;;;;6.73;2.37;;;;;;;;;;5083064;28;20547;-79
2023/07/11 06:18:11;;;;;;;8.37;2.70;;;;;;;;;;5080746;28;20457;-78
2023/07/11 06:20:39;;;;;;;4.70;2.17;;;;;;;;;;5078964;28;20445;-78
2023/07/11 06:23:06;;;;;;;3.37;1.60;;;;;;;;;;5078142;28;20514;-78
2023/07/11 06:25:34;;;;;;;6.03;2.40;;;;;;;;;;5093467;28;21062;-78
2023/07/11 06:28:01;;;;;;;7.07;2.03;;;;;;;;;;5097644;28;20754;-79
2023/07/11 06:30:30;;;;;;;6.63;1.97;;;;;;;;;;5097386;28;20451;-80
2023/07/11 06:32:58;;;;;;;3.20;1.80;;;;;;;;;;5101242;28;20499;-79
2023/07/11 06:35:26;;;;;;;5.93;2.23;;;;;;;;;;5100804;28;20472;-79
2023/07/11 06:37:53;;;;;;;7.90;2.50;;;;;;;;;;5100402;28;20459;-80
2023/07/11 06:40:21;;;;;;;4.37;2.00;;;;;;;;;;5099561;28;20479;-78
2023/07/11 06:42:48;;;;;;;7.70;2.10;;;;;;;;;;5104334;28;20456;-79
2023/07/11 06:45:15;;;;;;;5.97;2.30;;;;;;;;;;5101165;28;20455;-77
2023/07/11 06:47:44;;;;;;;8.93;2.80;;;;;;;;;;5098618;28;20462;-78
2023/07/11 06:50:12;;;;;;;3.70;2.17;;;;;;;;;;5099247;28;20793;-78
2023/07/11 06:52:40;;;;;;;4.07;1.73;;;;;;;;;;5098357;28;20772;-79
2023/07/11 06:55:07;;;;;;;4.60;2.03;;;;;;;;;;5095727;28;20501;-78
2023/07/11 06:57:35;;;;;;;5.10;1.40;;;;;;;;;;5098543;28;20632;-79
2023/07/11 07:00:09;;;;;;;5.63;1.83;;;;;;;;;;5098267;28;20448;-79
2023/07/11 07:02:37;;;;;;;5.67;2.00;;;;;;;;;;5100939;28;20446;-77
2023/07/11 07:05:06;;;;;;;4.40;2.23;;;;;;;;;;5100264;28;20487;-79
2023/07/11 07:07:34;;;;;;;4.83;2.03;;;;;;;;;;5097602;28;20478;-79
2023/07/11 07:10:12;;;;;;;6.37;2.53;;;;;;;;;;5099260;28;20448;-78
2023/07/11 07:12:39;;;;;;;7.33;2.70;;;;;;;;;;5100338;28;20469;-78
2023/07/11 07:15:07;;;;;;;8.20;2.43;;;;;;;;;;5099072;28;20494;-78
2023/07/11 07:17:35;;;;;;;7.87;3.27;;;;;;;;;;5097693;28;20452;-77
2023/07/11 07:20:09;;;;;;;5.87;2.07;;;;;;;;;;5100722;28;20459;-77
2023/07/11 07:22:38;;;;;;;5.47;2.30;;;;;;;;;;5097488;28;20447;-78
2023/07/11 07:25:05;;;;;;;7.70;2.23;;;;;;;;;;5098671;28;20436;-78
2023/07/11 07:27:33;;;;;;;5.07;1.77;;;;;;;;;;5099498;28;20460;-78
2023/07/11 07:30:00;;;;;;;7.53;2.10;;;;;;;;;;5083326;28;20468;-78
2023/07/11 07:32:28;;;;;;;6.03;2.20;;;;;;;;;;5081196;28;20460;-78
2023/07/11 07:34:55;;;;;;;4.93;2.33;;;;;;;;;;5081234;28;20461;-79
2023/07/11 07:37:22;;;;;;;6.30;1.77;;;;;;;;;;5082487;28;20866;-80
2023/07/11 07:39:51;;;;;;;6.83;2.40;;;;;;;;;;5081405;28;20441;-79
2023/07/11 07:42:19;;;;;;;6.03;2.20;;;;;;;;;;5079818;28;20661;-78
2023/07/11 07:44:47;;;;;;;10.17;3.03;;;;;;;;;;5079239;28;20453;-78
2023/07/11 07:47:14;;;;;;;6.00;2.20;;;;;;;;;;5076535;28;20463;-79
2023/07/11 07:49:42;;;;;;;6.47;1.93;;;;;;;;;;5075314;28;20653;-78
2023/07/11 07:52:10;;;;;;;4.57;2.37;;;;;;;;;;5079165;28;20464;-78
2023/07/11 07:54:38;;;;;;;7.73;2.00;;;;;;;;;;5076837;28;20512;-79
2023/07/11 07:57:07;;;;;;;4.10;2.33;;;;;;;;;;5075075;28;20492;-78
2023/07/11 07:59:34;;;;;;;4.60;2.13;;;;;;;;;;5074930;28;20678;-77
2023/07/11 08:02:01;;;;;;;5.20;1.43;;;;;;;;;;5074515;28;20480;-78
2023/07/11 08:04:30;;;;;;;8.40;2.90;;;;;;;;;;5075517;28;20452;-79
2023/07/11 08:06:57;;;;;;;4.70;2.17;;;;;;;;;;5079034;28;20445;-79
2023/07/11 08:09:25;;;;;;;4.30;2.00;;;;;;;;;;5077296;28;20444;-79
2023/07/11 08:11:52;;;;;;;7.47;2.20;;;;;;;;;;5078608;28;20613;-80
2023/07/11 08:14:21;;;;;;;5.30;2.03;;;;;;;;;;5076812;28;20444;-78
2023/07/11 08:16:49;;;;;;;4.70;1.63;;;;;;;;;;5074099;28;20487;-79
2023/07/11 08:19:17;;;;;;;4.43;2.10;;;;;;;;;;5073348;28;20935;-79
2023/07/11 08:21:44;;;;;;;4.87;1.77;;;;;;;;;;5077339;28;21078;-79
2023/07/11 08:24:12;;;;;;;4.60;1.83;;;;;;;;;;5076890;28;20484;-79
2023/07/11 08:26:40;;;;;;;4.17;1.43;;;;;;;;;;5076580;28;20751;-80
2023/07/11 08:29:07;;;;;;;7.27;2.10;;;;;;;;;;5075633;28;20559;-78
2023/07/11 08:31:36;;;;;;;7.10;1.70;;;;;;;;;;5082083;28;20769;-78
2023/07/11 08:34:03;;;;;;;6.97;1.93;;;;;;;;;;5085979;28;20527;-79
2023/07/11 08:36:31;;;;;;;6.07;2.43;;;;;;;;;;5081770;28;20476;-78
2023/07/11 08:38:58;;;;;;;6.03;2.10;;;;;;;;;;5097377;28;20459;-79
2023/07/11 08:41:31;;;;;;;6.30;1.90;;;;;;;;;;5097575;28;20468;-79
2023/07/11 08:44:04;;;;;;;4.40;2.00;;;;;;;;;;5083784;28;20470;-79
2023/07/11 08:46:34;;;;;;;8.07;1.90;;;;;;;;;;5082499;28;20539;-78
2023/07/11 08:49:03;;;;;;;5.20;1.87;;;;;;;;;;5083577;28;20448;-78
2023/07/11 08:51:32;;;;;;;5.83;2.33;;;;;;;;;;5081613;28;20495;-79
2023/07/11 08:54:02;;;;;;;4.30;1.80;;;;;;;;;;5081336;28;20464;-79
2023/07/11 08:56:36;;;;;;;4.63;2.30;;;;;;;;;;5080859;28;20484;-79
2023/07/11 08:59:09;;;;;;;6.40;2.30;;;;;;;;;;5078006;28;20467;-79
2023/07/11 09:01:42;;;;;;;8.20;2.10;;;;;;;;;;5080886;28;20524;-78
2023/07/11 09:04:14;;;;;;;5.10;2.23;;;;;;;;;;5080259;28;20461;-78
2023/07/11 09:06:45;;;;;;;4.20;1.80;;;;;;;;;;5080397;28;20915;-78
2023/07/11 09:09:12;;;;;;;4.60;2.37;;;;;;;;;;5080190;28;20453;-78
2023/07/11 09:11:43;;;;;;;6.03;2.00;;;;;;;;;;5078216;28;20476;-77
2023/07/11 09:14:15;;;;;;;5.53;1.90;;;;;;;;;;5078481;28;20468;-78
2023/07/11 09:16:46;;;;;;;5.53;2.00;;;;;;;;;;5077209;28;20515;-79
2023/07/11 09:19:21;;;;;;;7.20;2.07;;;;;;;;;;5073778;28;20542;-79
2023/07/11 09:21:53;;;;;;;6.97;2.93;;;;;;;;;;5073840;28;20482;-78
2023/07/11 09:24:31;;;;;;;18.63;2.60;;;;;;;;;;5074098;28;20608;-80
2023/07/11 09:27:01;;;;;;;8.90;2.93;;;;;;;;;;5073557;28;20456;-79
2023/07/11 09:29:29;;;;;;;5.07;1.90;;;;;;;;;;5076622;28;20490;-79
2023/07/11 09:31:59;;;;;;;5.10;1.70;;;;;;;;;;5076660;28;20482;-78
2023/07/11 09:34:34;;;;;;;6.10;1.77;;;;;;;;;;5077211;28;20518;-79
2023/07/11 09:37:05;;;;;;;4.77;1.67;;;;;;;;;;5077368;28;20948;-80
2023/07/11 09:39:35;;;;;;;4.77;1.30;;;;;;;;;;5078668;28;20444;-78
2023/07/11 09:42:06;;;;;;;5.43;1.87;;;;;;;;;;5080713;28;20850;-79
2023/07/11 09:44:33;;;;;;;6.13;2.83;;;;;;;;;;5093630;28;20460;-78
2023/07/11 09:47:09;;;;;;;4.63;1.83;;;;;;;;;;5102980;28;20455;-80
2023/07/11 09:49:38;;;;;;;5.53;1.53;;;;;;;;;;5101826;28;20452;-78
2023/07/11 09:52:08;;;;;;;6.23;1.30;;;;;;;;;;5101682;28;20450;-78
2023/07/11 09:54:56;;;;;;;3.63;1.40;;;;;;;;;;5101193;28;20424;-78
2023/07/11 09:57:24;;;;;;;7.63;2.53;;;;;;;;;;5098379;28;20484;-79
2023/07/11 09:59:58;;;;;;;4.93;1.90;;;;;;;;;;5098162;28;20539;-78
2023/07/11 10:02:25;;;;;;;4.60;1.80;;;;;;;;;;5080800;28;20528;-78
2023/07/11 10:08:01;;;;;;;4.23;2.27;;;;;;;;;;5076071;28;20444;-79
2023/07/11 10:10:29;;;;;;;8.27;1.83;;;;;;;;;;5078072;28;20479;-77
2023/07/11 10:12:57;;;;;;;4.33;1.77;;;;;;;;;;5076393;28;20451;-79
2023/07/11 10:15:27;;;;;;;5.00;2.20;;;;;;;;;;5080864;28;20499;-78
2023/07/11 10:17:57;;;;;;;8.40;2.27;;;;;;;;;;5080023;28;20456;-78
2023/07/11 10:20:26;;;;;;;4.33;1.83;;;;;;;;;;5080575;28;20456;-77
2023/07/11 10:22:56;;;;;;;6.53;2.90;;;;;;;;;;5078145;28;20939;-77
2023/07/11 10:25:26;;;;;;;9.73;3.70;;;;;;;;;;5079049;28;20749;-78
2023/07/11 10:27:56;;;;;;;4.40;1.87;;;;;;;;;;5077807;28;20464;-77
2023/07/11 10:30:26;;;;;;;5.20;1.97;;;;;;;;;;5078655;28;20919;-77
2023/07/11 10:32:56;;;;;;;5.77;2.37;;;;;;;;;;5077475;28;20481;-78
2023/07/11 10:35:24;;;;;;;4.23;2.00;;;;;;;;;;5080766;28;20530;-79
2023/07/11 10:37:56;;;;;;;6.90;2.20;;;;;;;;;;5080411;28;20489;-79
2023/07/11 10:40:28;;;;;;;6.93;2.37;;;;;;;;;;5079668;28;20474;-77
2023/07/11 10:43:04;;;;;;;6.90;3.53;;;;;;;;;;5080715;28;20471;-78
2023/07/11 10:45:34;;;;;;;6.30;2.20;;;;;;;;;;5079558;28;20464;-79
2023/07/11 10:48:05;;;;;;;5.67;1.97;;;;;;;;;;5079781;28;20539;-77
2023/07/11 10:50:34;;;;;;;8.30;3.00;;;;;;;;;;5079052;28;20949;-79
2023/07/11 10:53:12;;;;;;;8.17;3.73;;;;;;;;;;5081546;28;20461;-80
2023/07/11 10:55:44;;;;;;;5.40;1.90;;;;;;;;;;5098223;28;20468;-78
2023/07/11 10:58:12;;;;;;;9.50;3.37;;;;;;;;;;5101129;28;20443;-78
2023/07/11 11:00:50;;;;;;;5.73;3.73;;;;;;;;;;5102040;28;20450;-80
2023/07/11 11:03:27;;;;;;;5.33;2.30;;;;;;;;;;5100454;28;20450;-80
2023/07/11 11:06:02;;;;;;;7.10;3.60;;;;;;;;;;5100846;28;20526;-78
2023/07/11 11:08:42;;;;;;;5.60;3.03;;;;;;;;;;5084901;28;20594;-78
2023/07/11 11:11:23;;;;;;;5.50;2.93;;;;;;;;;;5079287;28;20755;-77
2023/07/11 11:14:06;;;;;;;9.87;3.57;;;;;;;;;;5074040;28;20653;-78
2023/07/11 11:16:39;;;;;;;7.33;2.63;;;;;;;;;;5076411;28;20480;-77
2023/07/11 11:19:13;;;;;;;5.70;2.37;;;;;;;;;;5081568;28;20497;-78
2023/07/11 11:21:44;;;;;;;4.70;1.90;;;;;;;;;;5082017;28;20869;-80
2023/07/11 11:24:20;;;;;;;6.07;2.50;;;;;;;;;;5080989;28;21151;-79
2023/07/11 11:27:07;;;;;;;5.23;2.20;;;;;;;;;;5081619;28;20459;-79
2023/07/11 11:29:41;;;;;;;3.60;1.73;;;;;;;;;;5078557;28;20463;-79
2023/07/11 11:32:18;;;;;;;4.63;1.70;;;;;;;;;;5077744;28;20460;-80
2023/07/11 11:34:50;;;;;;;7.60;2.73;;;;;;;;;;5076923;28;20862;-79
2023/07/11 11:37:20;;;;;;;6.07;2.40;;;;;;;;;;5075758;28;20484;-80
2023/07/11 11:39:55;;;;;;;5.73;2.97;;;;;;;;;;5074056;28;20425;-79
2023/07/11 11:42:25;;;;;;;5.20;2.23;;;;;;;;;;5076808;28;20776;-78
2023/07/11 11:44:56;;;;;;;7.33;3.53;;;;;;;;;;5079184;28;20785;-79
2023/07/11 11:47:29;;;;;;;11.27;4.50;;;;;;;;;;5079476;28;20444;-80
2023/07/11 11:49:57;;;;;;;5.37;2.57;;;;;;;;;;5078338;28;20451;-80
2023/07/11 11:52:25;;;;;;;5.60;2.50;;;;;;;;;;5075952;28;20592;-79
2023/07/11 11:54:53;;;;;;;4.50;2.23;;;;;;;;;;5077652;28;20437;-79
2023/07/11 11:57:22;;;;;;;4.53;2.50;;;;;;;;;;5081148;28;20457;-80
2023/07/11 11:59:59;;;;;;;7.30;2.70;;;;;;;;;;5080716;28;20458;-79
2023/07/11 12:02:31;;;;;;;4.20;2.20;;;;;;;;;;5081454;28;20527;-77
2023/07/11 12:05:00;;;;;;;5.20;2.10;;;;;;;;;;5078879;28;20645;-78
2023/07/11 12:07:37;;;;;;;4.10;1.80;;;;;;;;;;5078237;28;20720;-78
2023/07/11 12:10:24;;;;;;;5.33;2.43;;;;;;;;;;5081394;28;20448;-78
2023/07/11 12:13:18;;;;;;;7.20;2.77;;;;;;;;;;5074190;28;20463;-79
2023/07/11 12:15:49;;;;;;;6.70;3.33;;;;;;;;;;5087509;28;20447;-78
2023/07/11 12:18:35;;;;;;;6.13;2.90;;;;;;;;;;5088646;28;20514;-79
2023/07/11 12:21:17;;;;;;;6.07;3.27;;;;;;;;;;5091973;28;20548;-78
2023/07/11 12:23:47;;;;;;;4.37;2.07;;;;;;;;;;5088084;28;20481;-77
2023/07/11 12:35:27;;;;;;;6.43;2.67;;;;;;;;;;5039213;28;20904;-78
2023/07/11 12:38:15;;;;;;;6.60;2.60;;;;;;;;;;5077736;28;20484;-78
2023/07/11 12:41:04;;;;;;;6.27;2.93;;;;;;;;;;5063037;28;20491;-76
2023/07/11 12:44:40;;;;;;;9.30;4.33;;;;;;;;;;5058473;28;20455;-77
2023/07/11 12:50:17;;;;;;;7.73;2.90;;;;;;;;;;5057297;28;20429;-78
2023/07/11 12:55:25;;;;;;;5.93;2.83;;;;;;;;;;5074028;28;20517;-77
2023/07/11 12:58:08;;;;;;;5.30;2.80;;;;;;;;;;5072485;28;20469;-77
2023/07/11 13:06:54;;;;;;;7.30;3.77;;;;;;;;;;5071525;28;20560;-77
2023/07/11 13:12:14;;;;;;;8.80;5.17;;;;;;;;;;5021477;28;20471;-77
2023/07/11 13:18:40;;;;;;;;;;;;;;;;;;;;;
2023/07/11 13:21:25;;;;;;;6.33;3.90;;;;;;;;;;5077859;28;20972;-77
2023/07/11 13:26:36;;;;;;;7.10;4.63;;;;;;;;;;5060940;28;20449;-79
2023/07/11 13:29:09;;;;;;;7.80;4.30;;;;;;;;;;5065038;28;20480;-79
2023/07/11 13:31:38;;;;;;;7.10;4.93;;;;;;;;;;5063711;28;20737;-79
2023/07/11 13:34:12;;;;;;;6.10;3.17;;;;;;;;;;5063756;28;20457;-78
2023/07/11 13:36:41;;;;;;;5.90;3.33;;;;;;;;;;5063358;28;20532;-78
2023/07/11 13:39:12;;;;;;;6.60;2.73;;;;;;;;;;5064752;28;20449;-79
2023/07/11 13:41:43;;;;;;;8.03;4.30;;;;;;;;;;5067503;28;20436;-80
2023/07/11 13:44:15;;;;;;;8.23;3.90;;;;;;;;;;5064088;28;20515;-79
2023/07/11 13:46:43;;;;;;;5.33;3.27;;;;;;;;;;5059137;28;20934;-79
2023/07/11 13:49:11;;;;;;;6.97;4.47;;;;;;;;;;5059242;28;20457;-78
2023/07/11 13:51:40;;;;;;;7.40;4.60;;;;;;;;;;5061625;28;20456;-79
2023/07/11 13:54:09;;;;;;;6.60;4.07;;;;;;;;;;5064933;28;20816;-80
2023/07/11 13:56:39;;;;;;;8.03;4.40;;;;;;;;;;5061363;28;20461;-78
2023/07/11 13:59:09;;;;;;;6.17;4.50;;;;;;;;;;5056747;28;20533;-78
2023/07/11 14:01:37;;;;;;;6.47;4.27;;;;;;;;;;5043686;28;20516;-79
2023/07/11 14:04:10;;;;;;;6.30;4.27;;;;;;;;;;5062835;28;20698;-79
2023/07/11 14:06:39;;;;;;;5.97;4.23;;;;;;;;;;5062386;28;20583;-79
2023/07/11 14:09:07;;;;;;;10.63;6.30;;;;;;;;;;5060088;28;20463;-79
2023/07/11 14:11:41;;;;;;;9.10;5.80;;;;;;;;;;5063354;28;20446;-79
2023/07/11 14:14:13;;;;;;;7.10;4.00;;;;;;;;;;5057826;28;20463;-79
2023/07/11 14:16:40;;;;;;;7.07;4.70;;;;;;;;;;5058680;28;20789;-78
2023/07/11 14:19:20;;;;;;;7.67;4.60;;;;;;;;;;5057539;28;20457;-77
2023/07/11 14:21:47;;;;;;;7.83;4.90;;;;;;;;;;5061006;28;20551;-79
2023/07/11 14:24:18;;;;;;;7.10;4.27;;;;;;;;;;5045865;28;20458;-78
2023/07/11 14:26:47;;;;;;;6.73;4.20;;;;;;;;;;5041547;28;20458;-79
2023/07/11 14:29:26;;;;;;;9.13;4.90;;;;;;;;;;5040462;28;20450;-77
2023/07/11 14:31:54;;;;;;;10.70;4.53;;;;;;;;;;5041104;28;20458;-78
2023/07/11 14:34:22;;;;;;;9.20;4.83;;;;;;;;;;5042952;28;20453;-78
2023/07/11 14:36:50;;;;;;;11.60;6.43;;;;;;;;;;5042115;28;20458;-78
2023/07/11 14:39:18;;;;;;;7.00;4.43;;;;;;;;;;5041797;28;20501;-79
2023/07/11 14:41:46;;;;;;;8.13;4.60;;;;;;;;;;5056041;28;20462;-78
2023/07/11 14:44:21;;;;;;;6.80;4.53;;;;;;;;;;5059892;28;20449;-81
2023/07/11 14:46:53;;;;;;;8.27;4.80;;;;;;;;;;5059678;28;20890;-79
2023/07/11 14:49:21;;;;;;;7.23;4.87;;;;;;;;;;5061829;28;20515;-78
2023/07/11 14:51:49;;;;;;;7.20;4.17;;;;;;;;;;5061432;28;20540;-79
2023/07/11 14:54:18;;;;;;;6.80;4.77;;;;;;;;;;5059766;28;20450;-79
2023/07/11 14:56:46;;;;;;;7.70;3.50;;;;;;;;;;5060347;28;20552;-78
2023/07/11 14:59:33;;;;;;;9.60;5.90;;;;;;;;;;5056611;28;20460;-76
2023/07/11 15:02:10;;;;;;;7.20;4.47;;;;;;;;;;5059966;28;20484;-80
2023/07/11 15:04:37;;;;;;;6.90;4.10;;;;;;;;;;5059644;28;20583;-78
2023/07/11 15:07:08;;;;;;;7.30;4.27;;;;;;;;;;5058339;28;20485;-78
2023/07/11 15:09:35;;;;;;;11.73;5.23;;;;;;;;;;5059524;28;20469;-78
2023/07/11 15:12:05;;;;;;;6.53;4.53;;;;;;;;;;5058035;28;20468;-77
2023/07/11 15:14:35;;;;;;;6.70;4.47;;;;;;;;;;5061244;28;20485;-79
2023/07/11 15:17:04;;;;;;;7.70;4.47;;;;;;;;;;5061672;28;20453;-77
2023/07/11 15:19:32;;;;;;;7.13;4.70;;;;;;;;;;5063923;28;20508;-79
2023/07/11 15:22:04;;;;;;;8.00;4.83;;;;;;;;;;5062332;28;20509;-78
2023/07/11 15:24:33;;;;;;;9.50;4.90;;;;;;;;;;5051544;28;20853;-77
2023/07/11 15:27:01;;;;;;;8.83;5.90;;;;;;;;;;5053895;28;20453;-78
2023/07/11 15:29:28;;;;;;;8.37;4.70;;;;;;;;;;5051054;28;20481;-79
2023/07/11 15:31:56;;;;;;;8.93;5.30;;;;;;;;;;5053314;28;20446;-79
2023/07/11 15:34:27;;;;;;;16.43;7.27;;;;;;;;;;5052529;28;20544;-78
2023/07/11 15:36:55;;;;;;;9.00;6.03;;;;;;;;;;5052098;28;20457;-80